createdAt,value
2022-09-04T00:01:53.101Z,20.00
2022-09-04T00:04:20.374Z,20.00
2022-09-04T00:06:31.914Z,20.00
2022-09-04T00:09:03.234Z,20.00
2022-09-04T00:11:38.925Z,20.00
2022-09-04T00:13:50.733Z,19.90
2022-09-04T00:16:13.515Z,19.90
2022-09-04T00:18:22.659Z,19.90
2022-09-04T00:20:34.090Z,20.00
2022-09-04T00:23:16.716Z,19.90
2022-09-04T00:25:29.452Z,20.00
2022-09-04T00:27:45.830Z,19.90
2022-09-04T00:30:02.973Z,19.90
2022-09-04T00:32:41.533Z,19.90
2022-09-04T00:35:04.450Z,20.00
2022-09-04T00:37:09.432Z,20.00
2022-09-04T00:39:17.472Z,19.90
2022-09-04T00:41:32.903Z,19.90
2022-09-04T00:43:56.271Z,19.90
2022-09-04T00:46:29.828Z,19.90
2022-09-04T00:48:47.332Z,20.00
2022-09-04T00:51:15.067Z,20.00
2022-09-04T00:53:32.958Z,19.90
2022-09-04T00:56:15.479Z,19.90
2022-09-04T00:58:51.212Z,19.90
2022-09-04T01:00:57.109Z,19.90
2022-09-04T01:03:01.918Z,19.90
2022-09-04T01:05:23.072Z,19.90
2022-09-04T01:07:27.867Z,19.90
2022-09-04T01:09:58.585Z,19.90
2022-09-04T01:12:32.084Z,19.80
2022-09-04T01:14:42.938Z,19.90
2022-09-04T01:17:10.957Z,19.90
2022-09-04T01:19:30.538Z,19.80
2022-09-04T01:21:53.824Z,19.90
2022-09-04T01:24:19.705Z,19.80
2022-09-04T01:26:46.896Z,19.90
2022-09-04T01:29:29.005Z,19.90
2022-09-04T01:31:46.492Z,19.90
2022-09-04T01:33:57.104Z,19.90
2022-09-04T01:36:27.887Z,19.80
2022-09-04T01:38:39.236Z,19.90
2022-09-04T01:40:54.285Z,19.90
2022-09-04T01:43:17.494Z,19.90
2022-09-04T01:45:30.238Z,19.90
2022-09-04T01:47:50.119Z,19.90
2022-09-04T01:50:00.359Z,19.90
2022-09-04T01:52:36.524Z,19.90
2022-09-04T01:54:59.685Z,19.90
2022-09-04T01:57:18.307Z,19.90
2022-09-04T01:59:30.283Z,19.80
2022-09-04T02:01:49.503Z,19.80
2022-09-04T02:04:18.224Z,19.80
2022-09-04T02:06:46.952Z,19.80
2022-09-04T02:08:51.522Z,19.80
2022-09-04T02:11:29.890Z,19.70
2022-09-04T02:13:51.556Z,19.80
2022-09-04T02:16:16.511Z,19.70
2022-09-04T02:18:32.927Z,19.70
2022-09-04T02:20:35.096Z,19.70
2022-09-04T02:22:52.398Z,19.70
2022-09-04T02:24:57.161Z,19.70
2022-09-04T02:27:10.722Z,19.70
2022-09-04T02:29:21.733Z,19.70
2022-09-04T02:31:44.119Z,19.70
2022-09-04T02:34:06.042Z,19.70
2022-09-04T02:36:24.910Z,19.70
2022-09-04T02:38:48.645Z,19.70
2022-09-04T02:40:55.150Z,19.70
2022-09-04T02:43:19.722Z,19.70
2022-09-04T02:45:34.215Z,19.70
2022-09-04T02:47:49.275Z,19.70
2022-09-04T02:50:21.636Z,19.70
2022-09-04T02:52:51.940Z,19.70
2022-09-04T02:54:59.842Z,19.70
2022-09-04T02:57:11.958Z,19.70
2022-09-04T02:59:39.220Z,19.60
2022-09-04T03:01:49.863Z,19.60
2022-09-04T03:04:13.053Z,19.60
2022-09-04T03:06:23.762Z,19.60
2022-09-04T03:08:37.352Z,19.60
2022-09-04T03:10:53.292Z,19.60
2022-09-04T03:13:22.001Z,19.60
2022-09-04T03:15:47.693Z,19.60
2022-09-04T03:18:20.234Z,19.60
2022-09-04T03:20:26.350Z,19.60
2022-09-04T03:22:36.473Z,19.50
2022-09-04T03:25:03.875Z,19.50
2022-09-04T03:27:16.692Z,19.50
2022-09-04T03:29:36.252Z,19.40
2022-09-04T03:31:44.033Z,19.50
2022-09-04T03:33:58.314Z,19.40
2022-09-04T03:36:08.735Z,19.40
2022-09-04T03:38:22.919Z,19.40
2022-09-04T03:41:05.247Z,19.40
2022-09-04T03:43:33.446Z,19.40
2022-09-04T03:45:40.697Z,19.30
2022-09-04T03:47:57.780Z,19.30
2022-09-04T03:50:31.734Z,19.30
2022-09-04T03:53:04.628Z,19.20
2022-09-04T03:55:20.491Z,19.30
2022-09-04T03:57:56.101Z,19.30
2022-09-04T04:00:18.354Z,19.20
2022-09-04T04:02:34.619Z,19.20
2022-09-04T04:05:05.475Z,19.20
2022-09-04T04:07:08.534Z,19.20
2022-09-04T04:09:27.324Z,19.10
2022-09-04T04:11:43.687Z,19.10
2022-09-04T04:13:53.890Z,19.10
2022-09-04T04:15:59.130Z,19.10
2022-09-04T04:18:15.961Z,19.10
2022-09-04T04:20:34.686Z,19.00
2022-09-04T04:22:46.147Z,19.00
2022-09-04T04:25:17.847Z,19.10
2022-09-04T04:27:25.738Z,19.10
2022-09-04T04:29:42.232Z,19.00
2022-09-04T04:32:10.535Z,19.00
2022-09-04T04:34:50.092Z,19.10
2022-09-04T04:37:07.484Z,19.10
2022-09-04T04:39:30.432Z,19.10
2022-09-04T04:42:18.353Z,19.00
2022-09-04T04:44:46.714Z,18.80
2022-09-04T04:47:01.385Z,19.00
2022-09-04T04:49:05.881Z,19.00
2022-09-04T04:51:22.831Z,19.00
2022-09-04T04:53:29.527Z,18.90
2022-09-04T04:55:42.340Z,19.00
2022-09-04T04:58:21.097Z,19.00
2022-09-04T05:00:31.644Z,18.90
2022-09-04T05:02:51.711Z,18.90
2022-09-04T05:05:37.932Z,18.90
2022-09-04T05:07:44.373Z,18.90
2022-09-04T05:10:00.222Z,18.90
2022-09-04T05:12:04.375Z,18.90
2022-09-04T05:14:25.399Z,18.90
2022-09-04T05:16:51.092Z,18.90
2022-09-04T05:19:03.593Z,18.80
2022-09-04T05:21:27.729Z,18.80
2022-09-04T05:23:39.209Z,18.80
2022-09-04T05:26:10.216Z,18.80
2022-09-04T05:28:23.926Z,18.80
2022-09-04T05:30:40.488Z,18.80
2022-09-04T05:33:08.494Z,18.90
2022-09-04T05:35:40.147Z,18.80
2022-09-04T05:38:10.807Z,18.80
2022-09-04T05:40:16.796Z,18.80
2022-09-04T05:42:40.153Z,18.80
2022-09-04T05:45:11.913Z,18.80
2022-09-04T05:47:51.127Z,18.80
2022-09-04T05:50:08.309Z,18.80
2022-09-04T05:52:44.589Z,18.80
2022-09-04T05:55:24.433Z,18.90
2022-09-04T05:57:58.388Z,18.90
2022-09-04T06:00:06.545Z,18.90
2022-09-04T06:02:54.249Z,18.90
2022-09-04T06:04:56.110Z,18.90
2022-09-04T06:07:13.192Z,18.90
2022-09-04T06:09:20.643Z,18.90
2022-09-04T06:11:46.562Z,18.90
2022-09-04T06:14:12.034Z,19.00
2022-09-04T06:16:42.216Z,19.00
2022-09-04T06:19:10.262Z,19.00
2022-09-04T06:21:20.222Z,19.00
2022-09-04T06:23:49.197Z,19.00
2022-09-04T06:26:07.638Z,19.10
2022-09-04T06:28:39.213Z,19.10
2022-09-04T06:31:13.300Z,19.10
2022-09-04T06:33:29.800Z,19.10
2022-09-04T06:35:47.151Z,19.20
2022-09-04T06:38:21.076Z,19.20
2022-09-04T06:40:32.458Z,19.30
2022-09-04T06:42:55.349Z,19.30
2022-09-04T06:45:23.245Z,19.30
2022-09-04T06:47:56.374Z,19.40
2022-09-04T06:50:22.904Z,19.40
2022-09-04T06:52:51.903Z,19.50
2022-09-04T06:55:19.098Z,19.50
2022-09-04T06:57:59.101Z,19.50
2022-09-04T07:00:08.591Z,19.50
2022-09-04T07:02:22.707Z,19.50
2022-09-04T07:04:27.280Z,19.50
2022-09-04T07:07:26.826Z,19.50
2022-09-04T07:09:46.621Z,19.60
2022-09-04T07:12:36.317Z,19.60
2022-09-04T07:14:45.279Z,19.60
2022-09-04T07:17:15.397Z,19.60
2022-09-04T07:19:50.902Z,19.60
2022-09-04T07:22:27.432Z,19.70
2022-09-04T07:25:00.342Z,19.60
2022-09-04T07:27:26.773Z,19.60
2022-09-04T07:29:41.541Z,19.60
2022-09-04T07:32:11.307Z,19.70
2022-09-04T07:34:40.285Z,19.70
2022-09-04T07:37:01.461Z,19.70
2022-09-04T07:39:19.275Z,19.80
2022-09-04T07:41:31.767Z,19.80
2022-09-04T07:43:44.494Z,19.80
2022-09-04T07:45:56.531Z,19.80
2022-09-04T07:48:33.750Z,19.90
2022-09-04T07:50:43.297Z,19.90
2022-09-04T07:53:04.253Z,19.90
2022-09-04T07:55:40.542Z,19.90
2022-09-04T07:58:02.365Z,20.00
2022-09-04T08:00:09.578Z,20.00
2022-09-04T08:02:35.731Z,20.00
2022-09-04T08:05:00.912Z,20.10
2022-09-04T08:07:11.269Z,20.20
2022-09-04T08:09:42.898Z,20.20
2022-09-04T08:12:07.094Z,20.30
2022-09-04T08:14:16.835Z,20.30
2022-09-04T08:16:24.465Z,20.40
2022-09-04T08:18:34.262Z,20.40
2022-09-04T08:20:47.537Z,20.50
2022-09-04T08:23:15.815Z,20.50
2022-09-04T08:25:29.976Z,20.70
2022-09-04T08:27:55.254Z,20.80
2022-09-04T08:30:14.225Z,20.90
2022-09-04T08:32:23.434Z,21.00
2022-09-04T08:34:54.262Z,21.10
2022-09-04T08:37:22.906Z,21.20
2022-09-04T08:39:52.914Z,21.40
2022-09-04T08:42:12.605Z,21.40
2022-09-04T08:44:44.028Z,21.60
2022-09-04T08:47:06.603Z,21.60
2022-09-04T08:49:39.940Z,21.70
2022-09-04T08:52:15.011Z,21.80
2022-09-04T08:54:59.043Z,21.90
2022-09-04T08:57:25.784Z,22.00
2022-09-04T09:00:06.914Z,22.10
2022-09-04T09:02:42.945Z,22.20
2022-09-04T09:05:23.047Z,22.30
2022-09-04T09:08:05.415Z,22.40
2022-09-04T09:10:15.381Z,22.50
2022-09-04T09:13:12.188Z,22.60
2022-09-04T09:15:34.604Z,22.80
2022-09-04T09:17:56.265Z,22.90
2022-09-04T09:20:28.380Z,23.00
2022-09-04T09:22:51.005Z,23.20
2022-09-04T09:25:00.581Z,23.30
2022-09-04T09:27:44.960Z,23.30
2022-09-04T09:30:08.729Z,23.40
2022-09-04T09:32:34.783Z,23.50
2022-09-04T09:35:06.875Z,23.80
2022-09-04T09:37:36.288Z,23.70
2022-09-04T09:40:03.111Z,23.80
2022-09-04T09:42:10.126Z,23.90
2022-09-04T09:44:12.248Z,24.10
2022-09-04T09:46:32.545Z,24.20
2022-09-04T09:48:52.100Z,24.30
2022-09-04T09:51:22.925Z,24.40
2022-09-04T09:53:53.545Z,24.50
2022-09-04T09:56:36.030Z,24.60
2022-09-04T09:59:10.329Z,24.70
2022-09-04T10:01:22.289Z,24.70
2022-09-04T10:03:25.038Z,24.80
2022-09-04T10:05:57.872Z,24.80
2022-09-04T10:08:33.840Z,24.90
2022-09-04T10:10:41.202Z,25.00
2022-09-04T10:13:01.425Z,25.00
2022-09-04T10:15:34.047Z,25.00
2022-09-04T10:18:02.927Z,25.10
2022-09-04T10:20:50.896Z,25.20
2022-09-04T10:23:11.480Z,25.40
2022-09-04T10:25:31.665Z,25.40
2022-09-04T10:27:44.478Z,25.50
2022-09-04T10:30:03.876Z,25.60
2022-09-04T10:32:40.562Z,25.70
2022-09-04T10:35:03.225Z,25.90
2022-09-04T10:37:41.997Z,26.00
2022-09-04T10:40:33.761Z,26.20
2022-09-04T10:43:14.467Z,26.20
2022-09-04T10:45:30.047Z,26.30
2022-09-04T10:47:52.192Z,26.40
2022-09-04T10:50:46.295Z,26.50
2022-09-04T10:53:20.708Z,26.50
2022-09-04T10:55:36.332Z,26.70
2022-09-04T10:58:22.134Z,26.70
2022-09-04T11:00:50.025Z,26.70
2022-09-04T11:03:15.097Z,26.70
2022-09-04T11:05:20.461Z,26.80
2022-09-04T11:07:26.871Z,26.80
2022-09-04T11:09:53.503Z,26.90
2022-09-04T11:12:37.089Z,26.90
2022-09-04T11:14:49.795Z,27.00
2022-09-04T11:17:18.131Z,27.10
2022-09-04T11:20:01.042Z,27.20
2022-09-04T11:22:42.365Z,27.40
2022-09-04T11:25:24.797Z,27.50
2022-09-04T11:27:42.030Z,27.50
2022-09-04T11:29:55.857Z,27.60
2022-09-04T11:32:18.720Z,27.80
2022-09-04T11:34:58.478Z,27.90
2022-09-04T11:37:26.153Z,27.90
2022-09-04T11:39:39.989Z,28.00
2022-09-04T11:42:03.878Z,27.90
2022-09-04T11:44:06.320Z,28.00
2022-09-04T11:46:21.116Z,28.10
2022-09-04T11:49:00.463Z,28.20
2022-09-04T11:51:23.190Z,28.30
2022-09-04T11:54:01.977Z,28.50
2022-09-04T11:56:32.161Z,28.60
2022-09-04T11:58:56.052Z,28.70
2022-09-04T12:01:30.123Z,28.70
2022-09-04T12:03:57.218Z,28.80
2022-09-04T12:06:22.875Z,28.80
2022-09-04T12:09:02.374Z,28.80
2022-09-04T12:11:32.060Z,28.70
2022-09-04T12:13:57.987Z,28.60
2022-09-04T12:16:20.664Z,28.60
2022-09-04T12:18:35.350Z,28.60
2022-09-04T12:20:50.323Z,28.60
2022-09-04T12:23:10.245Z,28.70
2022-09-04T12:25:36.318Z,28.80
2022-09-04T12:28:11.210Z,28.90
2022-09-04T12:30:31.417Z,28.90
2022-09-04T12:33:08.742Z,28.80
2022-09-04T12:35:32.059Z,28.90
2022-09-04T12:37:54.003Z,28.80
2022-09-04T12:40:30.117Z,28.80
2022-09-04T12:42:37.742Z,28.80
2022-09-04T12:45:20.985Z,28.70
2022-09-04T12:47:47.925Z,28.80
2022-09-04T12:50:16.023Z,28.80
2022-09-04T12:52:45.492Z,28.90
2022-09-04T12:55:14.590Z,29.00
2022-09-04T12:57:30.373Z,29.00
2022-09-04T12:59:52.794Z,29.10
2022-09-04T13:02:05.165Z,29.10
2022-09-04T13:04:32.736Z,29.10
2022-09-04T13:06:53.489Z,29.30
2022-09-04T13:09:18.233Z,29.20
2022-09-04T13:11:35.732Z,29.30
2022-09-04T13:13:42.114Z,29.30
2022-09-04T13:15:46.638Z,29.30
2022-09-04T13:18:08.331Z,29.30
2022-09-04T13:20:23.556Z,29.30
2022-09-04T13:22:56.165Z,29.30
2022-09-04T13:25:02.619Z,29.30
2022-09-04T13:27:07.886Z,29.30
2022-09-04T13:29:53.338Z,29.30
2022-09-04T13:32:22.048Z,29.30
2022-09-04T13:34:49.908Z,29.30
2022-09-04T13:37:31.174Z,29.30
2022-09-04T13:39:57.421Z,29.30
2022-09-04T13:42:33.139Z,29.30
2022-09-04T13:44:47.332Z,29.30
2022-09-04T13:47:16.747Z,29.20
2022-09-04T13:49:29.209Z,29.40
2022-09-04T13:51:39.918Z,29.50
2022-09-04T13:54:02.467Z,29.60
2022-09-04T13:56:09.940Z,29.70
2022-09-04T13:58:21.093Z,29.80
2022-09-04T14:00:24.544Z,29.90
2022-09-04T14:02:27.926Z,30.00
2022-09-04T14:04:39.256Z,30.10
2022-09-04T14:06:41.118Z,30.10
2022-09-04T14:08:45.142Z,30.20
2022-09-04T14:11:17.848Z,30.20
2022-09-04T14:13:50.981Z,30.30
2022-09-04T14:16:12.333Z,30.30
2022-09-04T14:18:27.321Z,30.30
2022-09-04T14:20:40.494Z,30.20
2022-09-04T14:23:12.014Z,30.20
2022-09-04T14:25:31.769Z,30.30
2022-09-04T14:27:54.220Z,30.30
2022-09-04T14:30:13.941Z,30.30
2022-09-04T14:32:32.129Z,30.40
2022-09-04T14:34:50.059Z,30.40
2022-09-04T14:37:08.052Z,30.40
2022-09-04T14:39:35.331Z,30.50
2022-09-04T14:41:42.766Z,30.50
2022-09-04T14:44:05.840Z,30.50
2022-09-04T14:46:31.736Z,30.60
2022-09-04T14:48:40.857Z,30.70
2022-09-04T14:50:50.876Z,30.70
2022-09-04T14:52:56.571Z,30.70
2022-09-04T14:54:59.611Z,30.60
2022-09-04T14:57:25.322Z,30.60
2022-09-04T14:59:35.091Z,30.50
2022-09-04T15:02:01.811Z,30.50
2022-09-04T15:04:23.738Z,30.50
2022-09-04T15:06:54.818Z,30.50
2022-09-04T15:09:25.942Z,30.40
2022-09-04T15:11:32.813Z,30.40
2022-09-04T15:14:00.409Z,30.40
2022-09-04T15:16:21.027Z,30.40
2022-09-04T15:18:33.225Z,30.50
2022-09-04T15:20:38.169Z,30.60
2022-09-04T15:22:42.765Z,30.50
2022-09-04T15:24:44.444Z,30.50
2022-09-04T15:26:53.543Z,30.40
2022-09-04T15:29:07.111Z,30.40
2022-09-04T15:31:28.866Z,30.30
2022-09-04T15:33:30.945Z,30.30
2022-09-04T15:35:34.021Z,30.20
2022-09-04T15:37:51.376Z,30.20
2022-09-04T15:40:12.953Z,30.20
2022-09-04T15:42:41.765Z,30.30
2022-09-04T15:44:47.292Z,30.40
2022-09-04T15:46:55.006Z,30.40
2022-09-04T15:49:21.506Z,30.50
2022-09-04T15:51:46.084Z,30.60
2022-09-04T15:54:11.728Z,30.60
2022-09-04T15:56:16.078Z,30.80
2022-09-04T15:58:33.469Z,30.80
2022-09-04T16:00:40.823Z,30.90
2022-09-04T16:03:00.581Z,30.80
2022-09-04T16:05:26.155Z,30.80
2022-09-04T16:07:30.881Z,30.80
2022-09-04T16:09:43.998Z,30.80
2022-09-04T16:11:55.791Z,30.70
2022-09-04T16:14:07.441Z,30.70
2022-09-04T16:16:17.597Z,30.70
2022-09-04T16:18:37.700Z,30.60
2022-09-04T16:20:50.842Z,30.60
2022-09-04T16:23:00.584Z,30.60
2022-09-04T16:25:23.575Z,30.50
2022-09-04T16:27:29.323Z,30.50
2022-09-04T16:30:01.463Z,30.40
2022-09-04T16:32:06.842Z,30.40
2022-09-04T16:34:11.496Z,30.40
2022-09-04T16:36:20.928Z,30.30
2022-09-04T16:38:29.746Z,30.20
2022-09-04T16:40:35.358Z,30.20
2022-09-04T16:42:59.949Z,30.10
2022-09-04T16:45:20.260Z,30.10
2022-09-04T16:47:41.076Z,30.10
2022-09-04T16:49:52.047Z,30.00
2022-09-04T16:52:21.093Z,29.90
2022-09-04T16:54:30.761Z,29.90
2022-09-04T16:56:40.483Z,29.80
2022-09-04T16:59:00.173Z,29.70
2022-09-04T17:01:13.475Z,29.70
2022-09-04T17:03:24.908Z,29.60
2022-09-04T17:05:39.960Z,29.50
2022-09-04T17:08:07.658Z,29.40
2022-09-04T17:10:36.354Z,29.30
2022-09-04T17:12:44.654Z,29.20
2022-09-04T17:15:01.039Z,29.20
2022-09-04T17:17:30.524Z,29.10
2022-09-04T17:19:34.246Z,29.00
2022-09-04T17:28:58.962Z,28.90
2022-09-04T17:29:08.422Z,28.70
2022-09-04T17:29:14.769Z,28.80
2022-09-04T17:31:01.497Z,28.50
2022-09-04T17:36:49.291Z,28.40
2022-09-04T17:40:46.472Z,28.40
2022-09-04T17:40:49.877Z,28.30
2022-09-04T17:41:38.134Z,28.10
2022-09-04T17:43:43.106Z,28.00
2022-09-04T17:46:08.985Z,27.90
2022-09-04T17:48:32.005Z,27.90
2022-09-04T17:50:33.798Z,27.80
2022-09-04T17:52:53.779Z,27.60
2022-09-04T17:55:08.646Z,27.50
2022-09-04T17:57:15.897Z,27.50
2022-09-04T17:59:45.432Z,27.30
2022-09-04T18:02:17.586Z,27.30
2022-09-04T18:04:35.306Z,27.20
2022-09-04T18:06:42.853Z,27.10
2022-09-04T18:08:55.905Z,26.90
2022-09-04T18:11:22.911Z,26.90
2022-09-04T18:13:53.991Z,26.80
2022-09-04T18:16:14.493Z,26.70
2022-09-04T18:18:37.015Z,26.60
2022-09-04T18:20:51.833Z,26.50
2022-09-04T18:23:02.830Z,26.40
2022-09-04T18:25:35.556Z,26.30
2022-09-04T18:27:46.067Z,26.20
2022-09-04T18:35:20.939Z,26.10
2022-09-04T18:37:11.743Z,26.10
2022-09-04T18:37:16.261Z,25.90
2022-09-04T18:38:31.420Z,25.90
2022-09-04T18:42:21.831Z,25.80
2022-09-04T18:50:22.854Z,25.70
2022-09-04T18:50:47.017Z,25.60
2022-09-04T18:50:47.147Z,25.50
2022-09-04T18:51:19.311Z,25.40
2022-09-04T18:53:35.015Z,25.40
2022-09-04T18:56:20.486Z,25.30
2022-09-04T18:58:25.331Z,25.30
2022-09-04T19:00:41.021Z,25.20
2022-09-04T19:03:12.090Z,25.20
2022-09-04T19:05:19.851Z,25.10
2022-09-04T19:07:54.727Z,25.00
2022-09-04T19:10:12.643Z,25.00
2022-09-04T19:12:19.464Z,25.00
2022-09-04T19:14:30.359Z,24.90
2022-09-04T19:16:40.713Z,24.90
2022-09-04T19:18:57.734Z,24.80
2022-09-04T19:21:11.217Z,24.80
2022-09-04T19:23:33.694Z,24.70
2022-09-04T19:25:43.465Z,24.70
2022-09-04T19:27:55.348Z,24.60
2022-09-04T19:30:18.525Z,24.60
2022-09-04T19:32:28.383Z,24.60
2022-09-04T19:34:45.168Z,24.50
2022-09-04T19:37:14.905Z,24.40
2022-09-04T19:46:02.143Z,24.30
2022-09-04T19:46:02.489Z,24.30
2022-09-04T19:46:05.152Z,24.40
2022-09-04T19:47:27.390Z,24.30
2022-09-04T19:51:50.924Z,24.20
2022-09-04T19:53:24.517Z,24.10
2022-09-04T19:55:24.729Z,24.10
2022-09-04T19:57:43.952Z,24.10
2022-09-04T19:59:52.464Z,24.00
2022-09-04T20:02:21.888Z,23.90
2022-09-04T20:04:43.072Z,23.90
2022-09-04T20:06:52.599Z,23.80
2022-09-04T20:09:21.648Z,23.70
2022-09-04T20:12:06.751Z,23.70
2022-09-04T20:14:25.575Z,23.70
2022-09-04T20:16:37.459Z,23.60
2022-09-04T20:18:53.554Z,23.60
2022-09-04T20:21:07.614Z,23.50
2022-09-04T20:23:34.288Z,23.50
2022-09-04T20:25:58.093Z,23.50
2022-09-04T20:28:29.651Z,23.40
2022-09-04T20:30:33.556Z,23.50
2022-09-04T20:32:56.553Z,23.40
2022-09-04T20:35:14.613Z,23.40
2022-09-04T20:37:41.397Z,23.30
2022-09-04T20:40:13.990Z,23.30
2022-09-04T20:42:34.920Z,23.20
2022-09-04T20:47:39.641Z,23.20
2022-09-04T20:52:42.967Z,23.20
2022-09-04T20:52:51.517Z,23.20
2022-09-04T20:53:07.603Z,23.20
2022-09-04T20:55:22.632Z,23.10
2022-09-04T21:03:10.759Z,23.10
2022-09-04T21:03:14.758Z,23.10
2022-09-04T21:03:32.121Z,23.00
2022-09-04T21:06:10.539Z,22.90
2022-09-04T21:08:40.818Z,22.90
2022-09-04T21:10:48.282Z,22.90
2022-09-04T21:13:13.531Z,22.80
2022-09-04T21:15:28.248Z,22.70
2022-09-04T21:17:54.216Z,22.70
2022-09-04T21:20:10.987Z,22.60
2022-09-04T21:22:39.243Z,22.60
2022-09-04T21:25:18.781Z,22.50
2022-09-04T21:27:22.823Z,22.50
2022-09-04T21:30:02.591Z,22.40
2022-09-04T21:32:24.312Z,22.40
2022-09-04T21:34:54.046Z,22.40
2022-09-04T21:37:08.312Z,22.30
2022-09-04T21:39:22.052Z,22.20
2022-09-04T21:41:42.203Z,22.20
2022-09-04T21:44:12.030Z,22.10
2022-09-04T21:46:44.104Z,22.10
2022-09-04T21:49:29.951Z,22.10
2022-09-04T21:52:06.594Z,22.10
2022-09-04T21:56:21.469Z,22.10
2022-09-04T22:02:32.090Z,22.00
2022-09-04T22:02:37.641Z,22.00
2022-09-04T22:03:02.340Z,21.90
2022-09-04T22:05:42.265Z,21.90
2022-09-04T22:13:26.286Z,21.90
2022-09-04T22:13:31.595Z,21.80
2022-09-04T22:13:48.138Z,21.90
2022-09-04T22:16:16.037Z,21.80
2022-09-04T22:18:26.864Z,21.90
2022-09-04T22:20:39.557Z,21.80
2022-09-04T22:23:24.722Z,21.80
2022-09-04T22:25:47.107Z,21.90
2022-09-04T22:28:15.115Z,21.80
2022-09-04T22:30:19.015Z,21.80
2022-09-04T22:32:41.750Z,21.80
2022-09-04T22:35:16.969Z,21.80
2022-09-04T22:37:56.150Z,21.80
2022-09-04T22:40:20.315Z,21.80
2022-09-04T22:42:36.636Z,21.70
2022-09-04T22:44:47.169Z,21.70
2022-09-04T22:47:29.964Z,21.70
2022-09-04T22:49:57.141Z,21.60
2022-09-04T22:52:26.633Z,21.60
2022-09-04T22:54:59.856Z,21.60
2022-09-04T22:57:06.614Z,21.50
2022-09-04T22:59:26.841Z,21.50
2022-09-04T23:02:00.131Z,21.40
2022-09-04T23:04:33.326Z,21.40
2022-09-04T23:11:15.528Z,21.40
2022-09-04T23:13:43.533Z,21.30
2022-09-04T23:13:51.848Z,21.30
2022-09-04T23:15:11.945Z,21.20
2022-09-04T23:17:16.743Z,21.20
2022-09-04T23:26:32.480Z,21.10
2022-09-04T23:26:44.993Z,21.10
2022-09-04T23:26:46.442Z,21.10
2022-09-04T23:28:02.582Z,21.10
2022-09-04T23:30:27.092Z,21.00
2022-09-04T23:32:43.894Z,20.90
2022-09-04T23:35:43.716Z,21.00
2022-09-04T23:38:00.091Z,20.90
2022-09-04T23:40:19.694Z,20.90
2022-09-04T23:42:49.250Z,20.90
2022-09-04T23:45:29.615Z,20.90
2022-09-04T23:47:48.701Z,20.80
2022-09-04T23:50:24.028Z,20.80
2022-09-04T23:53:01.894Z,20.80
2022-09-04T23:55:25.319Z,20.70
2022-09-04T23:57:31.282Z,20.70
